Terminal Aerodrome Forecast
Issued by NWS

Home | Current Version | Previous Version | Text Only | Print | Product List | Glossary On
Versions: 1 2 3 4 5 6 7 8 9 10 11 12 13
000
FTUS45 KABQ 171100
TAFGUP
TAF
KGUP 171140Z 1712/1812 VRB05KT P6SM SCT040 BKN090
     FM171900 VRB05KT P6SM VCSH SCT030 BKN060
     FM172200 VRB15G25KT P6SM VCTS SCT025 BKN050CB
     FM180100 09005KT P6SM VCSH BKN080=

USA.gov is the U.S. government's official web portal to all federal, state and local government web resources and services.